Time;durP1;ratioP1;P1;durP2;ratioP2;P2;SDS_P1;SDS_P2;PMS_P1;PMS_P2;Temp;Humidity;BMP_temperature;BMP_pressure;BME280_temperature;BME280_humidity;BME280_pressure;Samples;Min_cycle;Max_cycle;Signal;HPM_P1;HPM_P2
2023/06/19 00:02:01;;;;;;;2.10;2.00;;;20.50;93.80;;;;;;4985882;28;20065;-72
2023/06/19 00:04:27;;;;;;;1.95;1.85;;;20.50;94.80;;;;;;4989992;28;20373;-72
2023/06/19 00:06:54;;;;;;;4.15;2.00;;;20.50;94.30;;;;;;4987159;28;20058;-72
2023/06/19 00:09:21;;;;;;;1.98;1.88;;;20.50;92.90;;;;;;4987953;28;20046;-72
2023/06/19 00:11:47;;;;;;;2.50;2.00;;;20.50;93.30;;;;;;4986722;28;20479;-72
2023/06/19 00:14:13;;;;;;;2.00;1.90;;;20.50;93.10;;;;;;4987953;28;20136;-72
2023/06/19 00:16:40;;;;;;;2.05;1.95;;;20.50;92.00;;;;;;4987701;28;20382;-72
2023/06/19 00:19:06;;;;;;;1.92;1.73;;;20.50;90.50;;;;;;4971372;28;20073;-72
2023/06/19 00:21:33;;;;;;;1.85;1.75;;;20.50;89.00;;;;;;4970728;28;20548;-73
2023/06/19 00:24:00;;;;;;;2.00;1.90;;;20.50;87.20;;;;;;4985282;28;20050;-73
2023/06/19 00:26:27;;;;;;;4.40;1.92;;;20.50;88.00;;;;;;4990897;28;20052;-72
2023/06/19 00:28:53;;;;;;;1.85;1.75;;;20.50;86.10;;;;;;4974171;28;20057;-73
2023/06/19 00:31:20;;;;;;;2.33;1.92;;;20.50;83.60;;;;;;5007669;28;20104;-73
2023/06/19 00:33:49;;;;;;;2.10;2.00;;;20.60;84.90;;;;;;4990824;28;20038;-72
2023/06/19 00:36:16;;;;;;;;;;;20.60;84.60;;;;;;5007127;28;20045;-71
2023/06/19 00:38:42;;;;;;;1.70;1.60;;;20.50;82.90;;;;;;4992184;28;20388;-72
2023/06/19 00:41:09;;;;;;;2.08;1.85;;;20.50;75.20;;;;;;4980999;28;20371;-71
2023/06/19 00:43:35;;;;;;;2.08;1.95;;;20.60;75.30;;;;;;4991372;28;20088;-71
2023/06/19 00:46:03;;;;;;;2.63;1.67;;;20.50;73.80;;;;;;5006611;28;20041;-72
2023/06/19 00:48:31;;;;;;;1.95;1.85;;;20.60;74.00;;;;;;4990566;28;20128;-72
2023/06/19 00:50:58;;;;;;;1.77;1.67;;;20.60;72.50;;;;;;4990050;28;20065;-73
2023/06/19 00:53:25;;;;;;;2.05;1.95;;;20.60;67.90;;;;;;4990450;28;20042;-72
2023/06/19 00:55:53;;;;;;;1.85;1.73;;;20.60;65.80;;;;;;5008083;28;20492;-71
2023/06/19 00:58:20;;;;;;;2.15;1.80;;;20.60;66.70;;;;;;4989771;28;20042;-72
2023/06/19 01:00:48;;;;;;;4.63;2.58;;;20.60;69.60;;;;;;5007673;28;20054;-72
2023/06/19 01:03:17;;;;;;;3.45;1.73;;;20.50;69.90;;;;;;5006551;28;20053;-72
2023/06/19 01:05:47;;;;;;;1.90;1.80;;;20.50;69.80;;;;;;4990131;28;20096;-72
2023/06/19 01:08:46;;;;;;;1.77;1.67;;;20.50;68.90;;;;;;4974209;28;20484;-72
2023/06/19 01:11:17;;;;;;;2.65;2.10;;;20.60;65.10;;;;;;4989477;28;20045;-72
2023/06/19 01:14:14;;;;;;;2.78;1.80;;;20.60;63.50;;;;;;4983894;28;20062;-72
2023/06/19 01:16:41;;;;;;;2.33;2.00;;;20.60;62.10;;;;;;5006391;28;20100;-72
2023/06/19 01:19:15;;;;;;;2.65;2.45;;;20.60;59.10;;;;;;5007243;28;20049;-72
2023/06/19 01:21:43;;;;;;;2.08;1.90;;;20.60;54.00;;;;;;5008011;28;20046;-72
2023/06/19 01:24:10;;;;;;;1.80;1.70;;;20.60;52.50;;;;;;4989017;28;20056;-72
2023/06/19 01:26:37;;;;;;;2.28;2.10;;;20.60;50.90;;;;;;4970819;28;20084;-72
2023/06/19 01:29:04;;;;;;;1.85;1.75;;;20.60;47.40;;;;;;4997352;28;20057;-73
2023/06/19 01:32:03;;;;;;;1.92;1.75;;;20.60;47.80;;;;;;4984673;28;20082;-72
2023/06/19 01:34:30;;;;;;;2.75;2.03;;;20.60;48.70;;;;;;4978051;28;20554;-72
2023/06/19 01:36:57;;;;;;;2.13;1.98;;;20.60;49.80;;;;;;5004291;28;20464;-72
2023/06/19 01:39:24;;;;;;;1.95;1.65;;;20.60;51.50;;;;;;4990444;28;20379;-72
2023/06/19 01:41:52;;;;;;;2.40;2.15;;;20.50;50.60;;;;;;4984549;28;20061;-72
2023/06/19 01:44:19;;;;;;;1.87;1.77;;;20.50;51.20;;;;;;4990462;28;20057;-73
2023/06/19 01:46:50;;;;;;;2.50;1.90;;;20.50;51.90;;;;;;4986119;28;20125;-72
2023/06/19 01:49:17;;;;;;;2.50;2.30;;;20.50;50.00;;;;;;4989172;28;20048;-72
2023/06/19 01:51:43;;;;;;;2.00;1.90;;;20.50;48.50;;;;;;4989777;28;20065;-72
2023/06/19 01:54:10;;;;;;;2.50;2.35;;;20.50;46.20;;;;;;4988582;28;20488;-73
2023/06/19 01:56:38;;;;;;;2.10;2.00;;;20.50;46.60;;;;;;4993380;28;20057;-72
2023/06/19 01:59:05;;;;;;;1.65;1.55;;;20.50;45.10;;;;;;4988264;28;20121;-72
2023/06/19 02:01:37;;;;;;;2.17;2.08;;;20.50;42.40;;;;;;4974662;28;20045;-72
2023/06/19 02:04:04;;;;;;;2.30;2.20;;;20.50;41.90;;;;;;4972645;28;20124;-72
2023/06/19 02:06:31;;;;;;;2.42;1.83;;;20.60;39.40;;;;;;4988955;28;20231;-72
2023/06/19 02:08:57;;;;;;;2.00;1.90;;;20.60;39.90;;;;;;4988549;28;20049;-72
2023/06/19 02:11:23;;;;;;;2.30;1.92;;;20.60;34.00;;;;;;4988480;28;20038;-72
2023/06/19 02:13:50;;;;;;;1.73;1.63;;;20.70;30.00;;;;;;4998906;28;20061;-72
2023/06/19 02:16:17;;;;;;;1.85;1.75;;;20.70;31.00;;;;;;4987462;28;20053;-72
2023/06/19 02:18:43;;;;;;;2.50;2.30;;;20.70;29.20;;;;;;4989665;28;20072;-73
2023/06/19 02:21:09;;;;;;;2.45;2.35;;;20.60;27.80;;;;;;4987811;28;20310;-72
2023/06/19 02:23:36;;;;;;;1.80;1.70;;;20.70;26.40;;;;;;4973195;28;20057;-72
2023/06/19 02:26:03;;;;;;;2.45;2.10;;;20.70;26.50;;;;;;4988165;28;20053;-72
2023/06/19 02:28:29;;;;;;;2.45;2.25;;;20.70;19.80;;;;;;5004125;28;20061;-72
2023/06/19 02:30:56;;;;;;;2.28;2.08;;;20.70;19.00;;;;;;5005537;28;20378;-72
2023/06/19 02:33:22;;;;;;;2.33;2.13;;;20.70;16.60;;;;;;4987653;28;20059;-73
2023/06/19 02:35:48;;;;;;;2.50;2.30;;;20.70;17.00;;;;;;4989540;28;20042;-72
2023/06/19 02:38:15;;;;;;;3.72;2.30;;;20.70;20.00;;;;;;4987206;28;20049;-72
2023/06/19 02:40:41;;;;;;;3.65;2.33;;;20.60;21.00;;;;;;4989249;28;20089;-72
2023/06/19 02:43:08;;;;;;;2.40;2.17;;;20.70;22.80;;;;;;4988009;28;20054;-73
2023/06/19 02:45:34;;;;;;;2.47;2.17;;;20.70;21.70;;;;;;4972377;28;20163;-72
2023/06/19 02:48:01;;;;;;;2.47;2.28;;;20.60;22.80;;;;;;4988261;28;20615;-72
2023/06/19 02:50:27;;;;;;;3.13;2.08;;;20.60;20.70;;;;;;4987906;28;20507;-72
2023/06/19 02:52:53;;;;;;;2.03;1.92;;;20.60;21.40;;;;;;4988656;28;20066;-73
2023/06/19 02:55:20;;;;;;;2.22;2.13;;;20.60;21.70;;;;;;4971209;28;20129;-73
2023/06/19 02:57:47;;;;;;;2.40;2.13;;;20.50;19.50;;;;;;4989101;28;20057;-72
2023/06/19 03:00:14;;;;;;;2.25;2.10;;;20.50;20.50;;;;;;4971501;28;20720;-71
2023/06/19 03:02:44;;;;;;;2.47;2.28;;;20.30;19.50;;;;;;5006194;28;20045;-71
2023/06/19 03:05:10;;;;;;;;;;;20.30;18.20;;;;;;4956734;28;20042;-71
2023/06/19 03:07:37;;;;;;;2.35;2.13;;;20.20;17.90;;;;;;4984255;28;19930;-72
2023/06/19 03:10:04;;;;;;;2.80;2.50;;;20.20;19.60;;;;;;5003336;28;20093;-72
2023/06/19 03:12:30;;;;;;;2.42;2.22;;;20.10;16.80;;;;;;5007757;28;20057;-72
2023/06/19 03:14:57;;;;;;;1.95;1.85;;;20.10;14.70;;;;;;4976229;28;20469;-72
2023/06/19 03:17:23;;;;;;;2.35;1.85;;;20.00;13.00;;;;;;4991244;28;20054;-72
2023/06/19 03:19:49;;;;;;;2.22;2.13;;;20.00;11.80;;;;;;4976189;28;20136;-73
2023/06/19 03:22:16;;;;;;;3.35;2.38;;;20.00;9.00;;;;;;4991827;28;20041;-72
2023/06/19 03:24:42;;;;;;;2.28;2.10;;;20.00;8.50;;;;;;5006487;28;20133;-71
2023/06/19 03:27:09;;;;;;;5.03;2.28;;;20.00;7.60;;;;;;4991544;28;20042;-73
2023/06/19 03:29:36;;;;;;;3.95;2.35;;;20.00;6.80;;;;;;5003705;28;20468;-73
2023/06/19 03:32:02;;;;;;;2.78;2.58;;;20.00;6.00;;;;;;5009020;28;20107;-73
2023/06/19 03:34:29;;;;;;;3.65;2.70;;;20.00;6.70;;;;;;4991285;28;20058;-73
2023/06/19 03:36:55;;;;;;;2.25;2.10;;;20.00;6.10;;;;;;4992268;28;20046;-73
2023/06/19 03:39:21;;;;;;;2.70;2.50;;;20.00;4.90;;;;;;5009013;28;20053;-72
2023/06/19 03:41:48;;;;;;;2.67;2.42;;;20.00;5.00;;;;;;4991921;28;20049;-72
2023/06/19 03:44:14;;;;;;;3.47;2.85;;;20.00;4.60;;;;;;4991951;28;20057;-72
2023/06/19 03:46:42;;;;;;;2.00;1.90;;;20.10;3.90;;;;;;4991119;28;20121;-72
2023/06/19 03:49:09;;;;;;;2.63;2.40;;;20.10;3.90;;;;;;4975495;28;20408;-72
2023/06/19 03:51:35;;;;;;;2.22;2.13;;;20.10;3.80;;;;;;4990973;28;20053;-72
2023/06/19 03:54:02;;;;;;;3.13;2.83;;;20.10;3.50;;;;;;4991928;28;20679;-73
2023/06/19 03:56:28;;;;;;;2.70;2.50;;;20.20;3.30;;;;;;4991429;28;20045;-72
2023/06/19 03:58:55;;;;;;;2.70;2.50;;;20.20;4.20;;;;;;4975461;28;20168;-72
2023/06/19 04:01:21;;;;;;;2.50;2.30;;;20.20;3.10;;;;;;5008865;28;20054;-72
2023/06/19 04:03:48;;;;;;;2.80;2.60;;;20.20;3.70;;;;;;4990881;28;20084;-72
2023/06/19 04:06:14;;;;;;;2.30;2.10;;;20.20;1.90;;;;;;4991623;28;20413;-73
2023/06/19 04:08:41;;;;;;;2.53;2.33;;;20.30;1.90;;;;;;4990294;28;20061;-74
2023/06/19 04:11:07;;;;;;;3.08;2.65;;;20.20;1.30;;;;;;4991773;28;20040;-73
2023/06/19 04:13:34;;;;;;;2.85;2.65;;;20.20;1.80;;;;;;4990902;28;20056;-73
2023/06/19 04:16:00;;;;;;;3.40;2.35;;;20.30;1.20;;;;;;4991407;28;20217;-72
2023/06/19 04:18:27;;;;;;;2.95;2.42;;;20.30;2.80;;;;;;4974941;28;20045;-72
2023/06/19 04:20:54;;;;;;;2.88;2.65;;;20.30;3.30;;;;;;4989934;28;20050;-72
2023/06/19 04:23:20;;;;;;;2.70;2.50;;;20.30;4.20;;;;;;4974922;28;20124;-72
2023/06/19 04:25:47;;;;;;;4.13;2.60;;;20.30;5.50;;;;;;4989391;28;20105;-72
2023/06/19 04:28:14;;;;;;;8.45;2.50;;;20.30;7.80;;;;;;4989099;28;20054;-72
2023/06/19 04:30:40;;;;;;;2.45;2.25;;;20.30;10.20;;;;;;4990514;28;20412;-72
2023/06/19 04:33:08;;;;;;;2.75;2.55;;;20.30;12.40;;;;;;4991153;28;20053;-72
2023/06/19 04:35:39;;;;;;;3.00;2.53;;;20.30;14.30;;;;;;5007964;28;20167;-72
2023/06/19 04:38:07;;;;;;;2.42;2.22;;;20.30;16.80;;;;;;5005381;28;20404;-72
2023/06/19 04:40:33;;;;;;;2.65;2.45;;;20.30;18.90;;;;;;5008925;28;20125;-72
2023/06/19 04:43:02;;;;;;;2.65;2.45;;;20.30;19.70;;;;;;4989923;28;20054;-72
2023/06/19 04:45:28;;;;;;;2.73;2.53;;;20.30;22.50;;;;;;4990921;28;20075;-72
2023/06/19 04:47:55;;;;;;;2.33;2.13;;;20.20;23.70;;;;;;5006182;28;20312;-73
2023/06/19 04:50:21;;;;;;;2.85;2.45;;;20.30;24.00;;;;;;4974633;28;20050;-72
2023/06/19 04:52:50;;;;;;;2.30;2.10;;;20.30;23.90;;;;;;4990879;28;20057;-74
2023/06/19 04:55:16;;;;;;;2.05;1.95;;;20.30;23.90;;;;;;4989701;28;20546;-73
2023/06/19 04:57:43;;;;;;;2.03;1.85;;;20.40;23.40;;;;;;4988098;28;20202;-73
2023/06/19 05:00:10;;;;;;;2.30;2.20;;;20.50;22.70;;;;;;5005474;28;20176;-73
2023/06/19 05:02:37;;;;;;;3.08;2.30;;;20.60;24.10;;;;;;4991184;28;20416;-73
2023/06/19 05:05:03;;;;;;;2.45;2.25;;;20.70;24.60;;;;;;4989541;28;20129;-73
2023/06/19 05:07:31;;;;;;;2.17;1.98;;;20.70;23.20;;;;;;4973070;28;20081;-74
2023/06/19 05:09:58;;;;;;;2.70;2.55;;;20.80;24.40;;;;;;5002813;28;20054;-74
2023/06/19 05:12:25;;;;;;;3.78;2.30;;;20.90;24.60;;;;;;4971232;28;20073;-74
2023/06/19 05:14:51;;;;;;;2.45;2.28;;;20.90;26.00;;;;;;4990611;28;20093;-73
2023/06/19 05:17:18;;;;;;;2.00;1.90;;;21.00;25.40;;;;;;4988718;28;20160;-72
2023/06/19 05:19:45;;;;;;;2.65;2.45;;;21.00;25.80;;;;;;4990782;28;20491;-74
2023/06/19 05:22:11;;;;;;;5.50;2.40;;;21.10;25.10;;;;;;4989358;28;20045;-73
2023/06/19 05:24:38;;;;;;;2.30;2.10;;;21.20;27.40;;;;;;4990676;28;20457;-73
2023/06/19 05:27:05;;;;;;;2.25;2.15;;;21.20;26.60;;;;;;5005976;28;20129;-74
2023/06/19 05:29:32;;;;;;;2.10;2.00;;;21.30;29.70;;;;;;4988646;28;20388;-72
2023/06/19 05:31:58;;;;;;;2.38;2.17;;;21.30;27.40;;;;;;4990337;28;20046;-74
2023/06/19 05:34:25;;;;;;;2.13;1.92;;;21.30;27.30;;;;;;4988300;28;20554;-74
2023/06/19 05:36:52;;;;;;;2.17;2.08;;;21.40;26.10;;;;;;4974785;28;20054;-72
2023/06/19 05:39:18;;;;;;;2.00;1.90;;;21.40;25.60;;;;;;5005689;28;20049;-72
2023/06/19 05:41:47;;;;;;;2.10;1.90;;;21.50;26.30;;;;;;4990716;28;20554;-72
2023/06/19 05:44:16;;;;;;;1.33;1.33;;;21.50;24.10;;;;;;5006077;28;20057;-74
2023/06/19 05:46:43;;;;;;;1.90;1.80;;;21.60;24.10;;;;;;4973743;28;20084;-73
2023/06/19 05:49:09;;;;;;;2.47;1.60;;;21.70;25.90;;;;;;4989023;28;20046;-74
2023/06/19 05:51:35;;;;;;;1.83;1.67;;;21.70;26.90;;;;;;4988747;28;20054;-71
2023/06/19 05:54:03;;;;;;;1.98;1.88;;;21.80;27.20;;;;;;4990130;28;20061;-73
2023/06/19 05:56:36;;;;;;;1.70;1.60;;;21.80;26.70;;;;;;4987763;28;20405;-72
2023/06/19 05:59:03;;;;;;;1.60;1.50;;;21.80;23.60;;;;;;4988079;28;20155;-72
2023/06/19 06:01:29;;;;;;;1.48;1.40;;;21.90;22.30;;;;;;5004253;28;20144;-72
2023/06/19 06:03:57;;;;;;;1.95;1.45;;;21.90;21.80;;;;;;4984961;28;20045;-72
2023/06/19 06:06:23;;;;;;;1.67;1.58;;;22.00;22.80;;;;;;4996726;28;20058;-71
2023/06/19 06:08:51;;;;;;;1.55;1.45;;;22.00;21.10;;;;;;5005548;28;20052;-72
2023/06/19 06:11:18;;;;;;;1.50;1.40;;;22.10;20.10;;;;;;5000112;28;20054;-73
2023/06/19 06:13:44;;;;;;;2.65;1.92;;;22.00;20.80;;;;;;4972408;28;20073;-71
2023/06/19 06:16:10;;;;;;;1.20;1.10;;;22.10;23.50;;;;;;4989125;28;20100;-72
2023/06/19 06:18:37;;;;;;;1.60;1.38;;;22.10;25.00;;;;;;4986480;28;20500;-73
2023/06/19 06:21:04;;;;;;;1.50;1.40;;;22.20;23.70;;;;;;4988952;28;20045;-72
2023/06/19 06:23:30;;;;;;;2.67;1.67;;;22.20;24.50;;;;;;5005456;28;20054;-71
2023/06/19 06:26:01;;;;;;;2.55;1.67;;;22.20;24.10;;;;;;5005823;28;20050;-71
2023/06/19 06:28:28;;;;;;;1.90;1.80;;;22.20;26.80;;;;;;5003121;28;20074;-72
2023/06/19 06:30:55;;;;;;;5.43;2.00;;;22.10;25.90;;;;;;4987965;28;20057;-73
2023/06/19 06:33:22;;;;;;;2.15;1.98;;;22.10;27.70;;;;;;4989142;28;20396;-73
2023/06/19 06:35:49;;;;;;;2.05;1.95;;;22.10;30.00;;;;;;4988006;28;20053;-71
2023/06/19 06:38:15;;;;;;;2.03;1.92;;;22.10;32.90;;;;;;5006622;28;20111;-72
2023/06/19 06:40:43;;;;;;;1.48;1.42;;;22.20;32.70;;;;;;4988121;28;20046;-72
2023/06/19 06:43:09;;;;;;;1.88;1.70;;;22.20;32.20;;;;;;4988590;28;20493;-71
2023/06/19 06:45:37;;;;;;;2.55;2.35;;;22.20;34.00;;;;;;4971740;28;20132;-72
2023/06/19 06:48:06;;;;;;;2.13;1.98;;;22.20;36.70;;;;;;4987604;28;20058;-71
2023/06/19 06:50:33;;;;;;;2.20;2.05;;;22.20;38.10;;;;;;4988619;28;20060;-71
2023/06/19 06:53:00;;;;;;;2.42;1.80;;;22.10;37.50;;;;;;4971564;28;20069;-71
2023/06/19 06:55:26;;;;;;;2.80;2.50;;;22.10;39.80;;;;;;5000215;28;20177;-71
2023/06/19 06:57:53;;;;;;;3.60;2.53;;;22.20;40.90;;;;;;4971014;28;20076;-73
2023/06/19 07:00:19;;;;;;;2.33;2.22;;;22.20;39.70;;;;;;4979287;28;20392;-71
2023/06/19 07:02:47;;;;;;;2.10;2.00;;;22.20;41.10;;;;;;5005151;28;20057;-71
2023/06/19 07:05:14;;;;;;;2.50;2.15;;;22.20;40.50;;;;;;4983874;28;20054;-72
2023/06/19 07:07:40;;;;;;;2.53;2.38;;;22.10;41.70;;;;;;4988227;28;20114;-72
2023/06/19 07:10:09;;;;;;;2.10;2.00;;;22.20;42.10;;;;;;5004260;28;20058;-72
2023/06/19 07:12:36;;;;;;;2.10;1.90;;;22.10;42.80;;;;;;5003988;28;20054;-71
2023/06/19 07:15:02;;;;;;;1.77;1.67;;;22.10;46.00;;;;;;4987324;28;20476;-71
2023/06/19 07:17:29;;;;;;;1.33;1.23;;;22.10;45.50;;;;;;4977074;28;20061;-72
2023/06/19 07:19:55;;;;;;;2.90;1.55;;;22.00;47.10;;;;;;4987019;28;20085;-72
2023/06/19 07:22:21;;;;;;;1.52;1.42;;;22.00;49.20;;;;;;4971525;28;20046;-71
2023/06/19 07:24:48;;;;;;;1.70;1.52;;;21.90;49.30;;;;;;4984572;28;20058;-71
2023/06/19 07:27:15;;;;;;;1.00;1.00;;;21.90;50.20;;;;;;4986696;28;20065;-72
2023/06/19 07:29:44;;;;;;;1.25;1.15;;;21.90;51.10;;;;;;4988593;28;20049;-71
2023/06/19 07:32:10;;;;;;;0.95;0.95;;;21.90;55.10;;;;;;4986635;28;20046;-72
2023/06/19 07:34:37;;;;;;;1.30;1.20;;;22.10;56.10;;;;;;4987399;28;20054;-71
2023/06/19 07:37:03;;;;;;;1.05;1.02;;;22.00;55.00;;;;;;4987351;28;20042;-73
2023/06/19 07:39:30;;;;;;;1.23;1.00;;;22.00;54.00;;;;;;5004659;28;20053;-72
2023/06/19 07:41:57;;;;;;;0.95;0.95;;;22.00;56.60;;;;;;4968485;28;20046;-71
2023/06/19 07:44:23;;;;;;;1.00;1.00;;;22.00;59.40;;;;;;4986624;28;20392;-71
2023/06/19 07:46:50;;;;;;;1.15;1.10;;;22.00;60.90;;;;;;4986578;28;20099;-73
2023/06/19 07:49:16;;;;;;;1.20;1.20;;;21.90;65.20;;;;;;4983216;28;20563;-71
2023/06/19 07:51:43;;;;;;;1.40;1.38;;;21.80;69.50;;;;;;4986426;28;20058;-71
2023/06/19 07:54:09;;;;;;;1.60;1.30;;;21.80;73.20;;;;;;4984231;28;20078;-72
2023/06/19 07:56:36;;;;;;;1.73;1.70;;;21.70;74.80;;;;;;4995567;28;20244;-71
2023/06/19 07:59:02;;;;;;;2.72;1.65;;;21.60;76.50;;;;;;4990402;28;20044;-72
2023/06/19 08:01:29;;;;;;;2.47;2.28;;;21.60;77.50;;;;;;4989010;28;20057;-71
2023/06/19 08:03:55;;;;;;;2.42;2.22;;;21.40;81.20;;;;;;4975932;28;20042;-71
2023/06/19 08:06:22;;;;;;;2.60;2.40;;;21.30;86.00;;;;;;4989336;28;20386;-71
2023/06/19 08:08:48;;;;;;;2.63;2.42;;;21.20;89.70;;;;;;4990105;28;20103;-71
2023/06/19 08:11:15;;;;;;;2.38;2.20;;;21.10;90.90;;;;;;4989608;28;20056;-72
2023/06/19 08:13:41;;;;;;;3.38;2.55;;;21.00;92.80;;;;;;4990542;28;20056;-72
2023/06/19 08:16:07;;;;;;;2.55;2.35;;;21.00;93.90;;;;;;4986334;28;20054;-72
2023/06/19 08:18:34;;;;;;;2.88;2.67;;;20.90;94.30;;;;;;4973480;28;20046;-72
2023/06/19 08:21:01;;;;;;;3.40;3.10;;;20.90;95.30;;;;;;4992053;28;20458;-73
2023/06/19 08:23:27;;;;;;;2.92;2.53;;;20.90;96.60;;;;;;4971642;28;20111;-72
2023/06/19 08:25:54;;;;;;;3.70;2.90;;;20.90;96.40;;;;;;4974640;28;20042;-71
2023/06/19 08:28:20;;;;;;;3.33;3.10;;;20.90;96.20;;;;;;4990636;28;20042;-71
2023/06/19 08:30:47;;;;;;;2.95;2.75;;;20.90;96.10;;;;;;5007767;28;20407;-72
2023/06/19 08:33:14;;;;;;;3.97;3.05;;;20.90;95.90;;;;;;4990484;28;20099;-71
2023/06/19 08:35:40;;;;;;;2.88;2.67;;;20.90;95.40;;;;;;4972355;28;20040;-72
2023/06/19 08:38:06;;;;;;;3.28;3.00;;;20.90;95.30;;;;;;4990372;28;20049;-71
2023/06/19 08:40:33;;;;;;;3.10;2.78;;;20.90;94.00;;;;;;4983812;28;20071;-72
2023/06/19 08:43:00;;;;;;;2.90;2.70;;;21.00;93.80;;;;;;4991069;28;20045;-71
2023/06/19 08:45:27;;;;;;;3.03;2.83;;;21.00;93.90;;;;;;4968706;28;20058;-72
2023/06/19 08:48:03;;;;;;;2.58;2.30;;;21.00;92.90;;;;;;5007582;28;20053;-71
2023/06/19 08:50:30;;;;;;;3.10;2.63;;;21.00;92.00;;;;;;4989415;28;20455;-72
2023/06/19 08:52:57;;;;;;;5.88;2.70;;;20.90;92.00;;;;;;4989441;28;20053;-71
2023/06/19 08:55:24;;;;;;;3.25;2.95;;;20.90;92.30;;;;;;4990595;28;20128;-72
2023/06/19 08:57:52;;;;;;;3.03;2.83;;;20.80;93.00;;;;;;4984640;28;20050;-70
2023/06/19 09:00:29;;;;;;;2.95;2.70;;;20.80;93.80;;;;;;5001653;28;20046;-72
2023/06/19 09:03:01;;;;;;;2.00;1.90;;;20.70;94.20;;;;;;4983334;28;20065;-71
2023/06/19 09:05:28;;;;;;;2.10;2.00;;;20.70;94.10;;;;;;4988087;28;20485;-71
2023/06/19 09:08:00;;;;;;;2.20;2.00;;;20.60;94.70;;;;;;4982219;28;20146;-71
2023/06/19 09:10:27;;;;;;;1.70;1.60;;;20.60;94.90;;;;;;4991985;28;20054;-71
2023/06/19 09:12:58;;;;;;;2.03;1.90;;;20.50;95.10;;;;;;4981930;28;20133;-71
2023/06/19 09:15:29;;;;;;;1.95;1.80;;;20.40;94.90;;;;;;4984599;28;20054;-72
2023/06/19 09:18:22;;;;;;;2.42;2.00;;;20.40;94.60;;;;;;4989720;28;20542;-70
2023/06/19 09:20:52;;;;;;;2.53;1.67;;;20.40;95.00;;;;;;5002573;28;20056;-71
2023/06/19 09:23:18;;;;;;;2.50;2.30;;;20.30;95.30;;;;;;4991782;28;20116;-71
2023/06/19 09:25:53;;;;;;;1.73;1.63;;;20.40;95.50;;;;;;4989151;28;20172;-72
2023/06/19 09:28:27;;;;;;;1.52;1.52;;;20.30;95.60;;;;;;4986613;28;20143;-71
2023/06/19 09:31:05;;;;;;;1.63;1.52;;;20.40;95.30;;;;;;5002810;28;20143;-70
2023/06/19 09:33:34;;;;;;;1.40;1.13;;;20.40;94.70;;;;;;4988829;28;20068;-71
2023/06/19 09:36:04;;;;;;;1.70;1.60;;;20.40;94.60;;;;;;4981227;28;20050;-71
2023/06/19 09:38:33;;;;;;;1.63;1.50;;;20.40;94.40;;;;;;4977374;28;20377;-72
2023/06/19 09:41:04;;;;;;;2.22;1.65;;;20.40;93.60;;;;;;4987638;28;20655;-71
2023/06/19 09:43:42;;;;;;;1.33;1.33;;;20.40;93.00;;;;;;5005506;28;20568;-71
2023/06/19 09:46:11;;;;;;;1.23;1.23;;;20.40;93.10;;;;;;4987922;28;20060;-71
2023/06/19 09:48:42;;;;;;;2.23;1.60;;;20.40;92.50;;;;;;4988919;28;20168;-71
2023/06/19 09:51:21;;;;;;;1.65;1.55;;;20.40;92.10;;;;;;4977706;28;20054;-70
2023/06/19 09:53:49;;;;;;;1.55;1.45;;;20.40;91.10;;;;;;5002555;28;20050;-71
2023/06/19 09:59:03;;;;;;;1.60;1.50;;;20.40;90.00;;;;;;4964913;23;20058;-72
2023/06/19 11:58:12;;;;;;;2.30;1.85;;;23.10;2.70;;;;;;4913997;28;20069;-71
2023/06/19 12:00:39;;;;;;;3.50;2.88;;;23.10;1.00;;;;;;4929025;29;20410;-70
2023/06/19 12:03:05;;;;;;;3.08;2.72;;;23.00;2.00;;;;;;4935592;29;20086;-71
2023/06/19 12:05:32;;;;;;;3.65;2.42;;;23.00;2.00;;;;;;4925378;29;20056;-71
2023/06/19 12:08:01;;;;;;;2.97;2.33;;;23.00;6.70;;;;;;4928718;29;20047;-71
2023/06/19 12:10:28;;;;;;;3.13;2.92;;;23.10;1.90;;;;;;4934355;29;20192;-72
2023/06/19 12:12:55;;;;;;;3.17;2.97;;;23.10;3.60;;;;;;4938336;29;20055;-71
2023/06/19 12:15:21;;;;;;;3.13;2.53;;;23.10;1.00;;;;;;4935004;29;20446;-71
2023/06/19 12:17:48;;;;;;;2.17;1.98;;;23.00;1.00;;;;;;4934552;29;20253;-72
2023/06/19 12:20:15;;;;;;;3.08;2.25;;;23.00;1.00;;;;;;4933639;28;20051;-71
2023/06/19 12:22:42;;;;;;;1.98;1.88;;;23.00;1.00;;;;;;4925232;29;20062;-71
2023/06/19 12:25:09;;;;;;;2.40;2.30;;;23.10;1.00;;;;;;4930065;28;20110;-70
2023/06/19 12:27:35;;;;;;;2.20;2.00;;;23.10;1.00;;;;;;4931366;29;20047;-71
2023/06/19 12:30:02;;;;;;;2.53;1.98;;;23.10;1.00;;;;;;4938221;28;20417;-70
2023/06/19 12:32:29;;;;;;;1.95;1.85;;;23.20;1.00;;;;;;4933965;29;20517;-70
2023/06/19 12:34:56;;;;;;;3.40;2.25;;;23.20;1.00;;;;;;4935192;29;20051;-71
2023/06/19 12:37:23;;;;;;;2.75;1.80;;;23.30;1.00;;;;;;4933607;29;20055;-71
2023/06/19 12:39:50;;;;;;;2.72;2.10;;;23.40;1.00;;;;;;4933953;29;20047;-71
2023/06/19 12:42:17;;;;;;;3.92;2.55;;;23.40;1.00;;;;;;4951180;28;20125;-71
2023/06/19 12:44:44;;;;;;;2.50;2.40;;;23.20;1.00;;;;;;4946080;29;20074;-71
2023/06/19 12:47:11;;;;;;;3.35;3.00;;;23.20;1.00;;;;;;4919485;28;20058;-71
2023/06/19 12:49:38;;;;;;;2.35;2.15;;;23.20;1.00;;;;;;4933230;29;20055;-72
2023/06/19 12:52:04;;;;;;;2.03;1.92;;;23.20;1.00;;;;;;4951198;28;20102;-70
2023/06/19 12:54:31;;;;;;;2.50;2.30;;;23.20;1.00;;;;;;4934307;29;20057;-70
2023/06/19 12:57:03;;;;;;;3.38;3.08;;;23.10;1.00;;;;;;4933282;29;20094;-71
2023/06/19 12:59:32;;;;;;;3.42;3.13;;;23.10;1.00;;;;;;4948171;28;20073;-73
2023/06/19 13:02:00;;;;;;;3.78;2.88;;;23.10;1.00;;;;;;4959173;28;20063;-70
2023/06/19 13:04:27;;;;;;;4.43;2.85;;;23.20;1.00;;;;;;4950706;28;20110;-71
2023/06/19 13:06:53;;;;;;;6.03;3.70;;;23.30;1.00;;;;;;4916181;29;20399;-70
2023/06/19 13:09:20;;;;;;;4.28;3.55;;;23.40;1.00;;;;;;4927447;29;20064;-71
2023/06/19 13:11:46;;;;;;;2.70;2.55;;;23.50;1.00;;;;;;4931218;29;20052;-71
2023/06/19 13:14:13;;;;;;;2.58;2.38;;;23.60;1.00;;;;;;4947964;29;20122;-72
2023/06/19 13:16:39;;;;;;;3.75;2.40;;;23.80;1.00;;;;;;4949966;28;20040;-70
2023/06/19 13:19:06;;;;;;;2.70;2.47;;;23.90;1.00;;;;;;4948105;28;20057;-71
2023/06/19 13:21:32;;;;;;;3.67;2.47;;;24.00;1.00;;;;;;4927567;28;20071;-70
2023/06/19 13:23:59;;;;;;;2.22;2.13;;;24.10;1.00;;;;;;4944985;28;20051;-70
2023/06/19 13:26:25;;;;;;;3.45;3.13;;;24.10;1.00;;;;;;4947523;28;20649;-71
2023/06/19 13:28:52;;;;;;;4.45;3.28;;;24.10;1.00;;;;;;4937843;29;20141;-71
2023/06/19 13:31:18;;;;;;;4.60;3.00;;;24.00;1.00;;;;;;4935921;29;20055;-71
2023/06/19 13:33:44;;;;;;;4.68;3.15;;;24.00;1.00;;;;;;4934699;28;20126;-72
2023/06/19 13:36:11;;;;;;;3.92;2.72;;;24.10;1.00;;;;;;4940505;29;20130;-70
2023/06/19 13:38:38;;;;;;;3.50;2.90;;;24.10;1.00;;;;;;4931696;29;20062;-71
2023/06/19 13:41:05;;;;;;;2.88;2.67;;;24.10;1.00;;;;;;4929977;29;20375;-71
2023/06/19 13:43:32;;;;;;;3.92;3.35;;;24.20;1.00;;;;;;4947188;29;20450;-71
2023/06/19 13:45:58;;;;;;;2.55;2.33;;;24.30;1.00;;;;;;4934987;28;20289;-71
2023/06/19 13:48:25;;;;;;;2.90;2.70;;;24.30;1.00;;;;;;4954465;28;20051;-72
2023/06/19 13:50:51;;;;;;;2.88;2.72;;;24.30;1.00;;;;;;4929858;29;20055;-72
2023/06/19 13:53:18;;;;;;;2.63;2.38;;;24.10;1.00;;;;;;4931472;28;20059;-70
2023/06/19 13:55:44;;;;;;;2.60;2.40;;;23.90;1.00;;;;;;4930659;29;20058;-71
2023/06/19 13:58:11;;;;;;;3.60;1.95;;;23.90;1.00;;;;;;4946671;29;20050;-70
2023/06/19 14:00:44;;;;;;;4.35;2.92;;;23.90;1.00;;;;;;4938752;28;20145;-70
2023/06/19 14:03:13;;;;;;;2.47;2.28;;;23.90;1.00;;;;;;4932701;29;20443;-72
2023/06/19 14:05:41;;;;;;;2.70;2.50;;;23.90;1.00;;;;;;4933278;29;20553;-71
2023/06/19 14:08:09;;;;;;;3.65;3.40;;;24.00;1.00;;;;;;4947885;28;20054;-72
2023/06/19 14:10:35;;;;;;;3.88;3.58;;;24.10;1.00;;;;;;4945200;29;20075;-73
2023/06/19 14:13:02;;;;;;;3.00;2.78;;;24.10;1.00;;;;;;4931977;28;20066;-70
2023/06/19 14:15:28;;;;;;;3.17;2.88;;;24.10;1.00;;;;;;4941188;29;20078;-71
2023/06/19 14:17:55;;;;;;;3.05;2.33;;;24.30;1.00;;;;;;4931960;29;20047;-71
2023/06/19 14:20:21;;;;;;;3.33;3.05;;;24.30;1.00;;;;;;4947775;28;20051;-72
2023/06/19 14:22:48;;;;;;;2.97;2.78;;;24.30;1.00;;;;;;4930294;29;20450;-72
2023/06/19 14:25:14;;;;;;;2.40;2.20;;;24.20;1.00;;;;;;4932760;28;20502;-71
2023/06/19 14:27:43;;;;;;;1.93;1.83;;;24.20;1.00;;;;;;4946275;28;20475;-71
2023/06/19 14:30:11;;;;;;;3.85;2.17;;;24.30;1.00;;;;;;4947128;28;20051;-72
2023/06/19 14:32:37;;;;;;;2.47;2.28;;;24.40;1.00;;;;;;4929718;29;20141;-72
2023/06/19 14:35:05;;;;;;;2.42;2.28;;;24.50;1.00;;;;;;4947043;28;20126;-72
2023/06/19 14:37:31;;;;;;;2.72;2.15;;;24.60;1.00;;;;;;4939371;29;20062;-72
2023/06/19 14:39:58;;;;;;;2.97;2.13;;;24.60;1.00;;;;;;4911626;29;20051;-70
2023/06/19 14:42:29;;;;;;;3.30;1.85;;;24.60;1.00;;;;;;4945736;29;20387;-71
2023/06/19 14:44:56;;;;;;;2.45;2.25;;;24.50;1.00;;;;;;4932500;29;20055;-70
2023/06/19 14:47:24;;;;;;;2.00;1.90;;;24.50;1.00;;;;;;4932828;29;20054;-70
2023/06/19 14:49:51;;;;;;;2.17;2.03;;;24.40;1.00;;;;;;4916444;29;20162;-70
2023/06/19 14:52:19;;;;;;;1.83;1.63;;;24.40;1.00;;;;;;4931861;29;20129;-71